Latest Coastal Weather Observations for Hamilton Island

IDQ60701

Issued at 7:01 am EST Monday 20 February 2017 (issued every 10 minutes, with the page automatically refreshed every 10 minutes)

About coastal observations | Map of coastal stations | Coastal observations for QLD | Marine services | Other Formats
Station Details ID: 033106 Name: HAMILTON ISLAND AIRPORT Lat: -20.37 Lon: 148.95 Height: 58.66 m
Data from the previous 72 hours. | See also: Recent months at Hamilton Island
Date/Time
EST
Temp
°C
Wind Pressure Rain since
9am
mm
Weather Cloud Vis
km
Sea
Height
m
Swell
Dir  Spd
kts
Gust
kts
hPa Trend Height
m
Period
s
Dir
20/07:00am 26.9 NNW 3 5 1009.6 - 0.0 - - 10 - - - -
20/06:30am 26.5 CALM 0 0 1009.3 - 0.0 - - 10 - - - -
20/06:00am 26.2 WNW 5 7 1008.8 - 0.0 - - 10 - - - -
20/05:30am 25.9 NW 4 5 1008.9 - 0.0 - - 10 - - - -
20/05:00am 25.9 NW 4 4 1008.7 - 0.0 - Partly cloudy 10 - - - -
20/04:30am 25.9 NNW 4 5 1008.6 - 0.0 - - 10 - - - -
20/04:00am 26.0 N 5 7 1008.4 - 0.0 - Partly cloudy 10 - - - -
20/03:30am 25.9 NNW 5 6 1008.3 - 0.0 - Partly cloudy 10 - - - -
20/03:00am 25.9 NW 6 9 1008.0 - 0.0 - Partly cloudy 10 - - - -
20/02:30am 26.1 NNW 6 10 1008.5 - 0.0 - Partly cloudy 10 - - - -
20/02:00am 26.1 NNW 8 12 1008.4 - 0.0 - - 10 - - - -
20/01:30am 26.3 NW 9 11 1008.8 - 0.0 - - 10 - - - -
20/01:00am 26.2 NW 10 14 1009.2 - 0.0 - - 10 - - - -
20/12:30am 26.7 NW 8 10 1009.6 - 0.0 - - 10 - - - -
20/12:00am 26.9 NW 8 10 1009.4 - 0.0 - Cloudy 10 - - - -
 
Date/Time
EST
Temp
°C
Wind Pressure Rain since
9am
mm
Weather Cloud Vis
km
Sea
Height
m
Swell
Dir  Spd
kts
Gust
kts
hPa Trend Height
m
Period
s
Dir
19/11:32pm 26.8 NNW 9 11 1009.9 - 0.0 - Partly cloudy 10 - - - -
19/11:30pm 26.7 NNW 9 11 1009.9 - 0.0 - Partly cloudy 10 - - - -
19/11:19pm 26.8 NW 8 12 1010.1 - 0.0 - Partly cloudy 10 - - - -
19/11:17pm 27.0 NW 8 12 1010.1 - 0.0 - Partly cloudy 10 - - - -
19/11:01pm 27.4 WNW 7 8 1010.2 - 0.0 - Partly cloudy 10 - - - -
19/11:00pm 27.4 WNW 7 8 1010.2 - 0.0 - Partly cloudy 10 - - - -
19/10:30pm 27.3 NNW 5 6 1010.0 - 0.0 - - 10 - - - -
19/10:00pm 27.4 N 4 6 1009.9 - 0.0 - Partly cloudy - - - - -
19/09:30pm 27.7 N 5 7 1009.9 - 0.0 - Partly cloudy 10 - - - -
19/09:00pm 27.6 NE 5 7 1009.5 - 0.0 - Cloudy 10 - - - -
19/08:30pm 27.7 NNE 5 6 1009.7 - 0.0 - Partly cloudy 10 - - - -
19/08:00pm 27.7 NNE 5 6 1009.3 - 0.0 - Partly cloudy 10 - - - -
19/07:30pm 27.8 N 5 7 1008.8 - 0.0 - Partly cloudy 10 - - - -
19/07:00pm 27.9 NNE 7 9 1008.2 - 0.0 - Partly cloudy 10 - - - -
19/06:30pm 28.2 N 8 10 1007.8 - 0.0 - Partly cloudy 10 - - - -
19/06:00pm 28.1 NNW 11 15 1007.1 - 0.0 - Mostly cloudy 10 - - - -
19/05:30pm 28.2 NNW 11 16 1007.2 - 0.0 - - 10 - - - -
19/05:00pm 28.2 NW 12 15 1006.8 - 0.0 - - 10 - - - -
19/04:30pm 28.5 NW 11 15 1006.4 - 0.0 - - 10 - - - -
19/04:00pm 29.8 NW 11 13 1006.3 - 0.0 - - 10 - - - -
19/03:30pm 30.0 NW 12 15 1006.7 - 0.0 - - 10 - - - -
19/03:00pm 30.2 NW 11 14 1006.5 - 0.0 - - 10 - - - -
19/02:30pm 29.5 NNW 13 16 1007.5 - 0.0 - - 10 - - - -
19/02:00pm 29.9 NW 13 17 1007.8 - 0.0 - - 10 - - - -
19/01:30pm 30.1 NNW 12 15 1008.3 - 0.0 - - 10 - - - -
19/01:00pm 29.3 NNW 12 15 1008.7 - 0.0 - - 10 - - - -
19/12:30pm 29.9 NNW 11 14 1009.2 - 0.0 - - 10 - - - -
19/12:00pm 29.6 NNW 10 13 1009.1 - 0.0 - Mostly clear 10 - - - -
19/11:30am 29.7 NNW 8 11 1009.9 - 0.0 - Partly cloudy 10 - - - -
19/11:00am 28.8 NNW 4 8 1010.2 - 0.0 - Partly cloudy 10 - - - -
19/10:30am 29.5 NW 6 7 1010.3 - 0.0 - - 10 - - - -
19/10:00am 28.4 NW 6 8 1010.6 - 0.0 - - 10 - - - -
19/09:30am 29.0 NNW 3 6 1010.8 - 0.0 - Partly cloudy 10 - - - -
19/09:00am 28.1 N 4 6 1010.4 - 0.0 - Mostly clear 10 - - - -
19/08:30am 27.5 NNE 5 6 1010.6 - 0.0 - Partly cloudy 10 - - - -
19/08:00am 27.3 NNE 4 6 1010.5 - 0.0 - Partly cloudy 10 - - - -
19/07:30am 26.5 NNW 2 3 1010.5 - 0.0 - Partly cloudy 10 - - - -
19/07:00am 26.0 CALM 0 0 1010.2 - 0.0 - Partly cloudy 10 - - - -
19/06:30am 25.9 CALM 0 3 1009.8 - 0.0 - Partly cloudy 10 - - - -
19/06:00am 25.4 NNE 5 6 1008.7 - 0.0 - Mostly clear 10 - - - -
19/05:30am 25.5 N 6 7 1008.6 - 0.0 - - 10 - - - -
19/05:00am 25.4 NNE 6 7 1008.5 - 0.0 - - 10 - - - -
19/04:30am 25.3 NNE 5 6 1008.5 - 0.0 - - 10 - - - -
19/04:00am 25.5 N 5 6 1008.5 - 0.0 - - 10 - - - -
19/03:30am 25.6 N 6 7 1008.4 - 0.0 - - 10 - - - -
19/03:00am 25.7 N 7 8 1008.2 - 0.0 - - 10 - - - -
19/02:30am 25.4 N 6 8 1008.8 - 0.0 - - 10 - - - -
19/02:00am 25.7 N 6 7 1009.1 - 0.0 - - 10 - - - -
19/01:30am 25.5 N 6 8 1009.5 - 0.0 - - 10 - - - -
19/01:00am 25.4 N 6 7 1009.8 - 0.0 - - 10 - - - -
19/12:30am 25.5 NW 4 6 1010.0 - 0.0 - - 10 - - - -
19/12:00am 25.4 N 4 5 1009.9 - 0.0 - - 10 - - - -
 
Date/Time
EST
Temp
°C
Wind Pressure Rain since
9am
mm
Weather Cloud Vis
km
Sea
Height
m
Swell
Dir  Spd
kts
Gust
kts
hPa Trend Height
m
Period
s
Dir
18/11:30pm 25.5 NNW 5 6 1010.7 - 0.0 - - 10 - - - -
18/11:00pm 25.4 NNW 5 6 1010.8 - 0.0 - - 10 - - - -
18/10:30pm 25.6 N 4 6 1011.0 - 0.0 - - 10 - - - -
18/10:00pm 25.9 NNW 4 5 1011.2 - 0.0 - - 10 - - - -
18/09:30pm 25.9 N 5 5 1011.0 - 0.0 - - 10 - - - -
18/09:00pm 26.0 NNE 6 7 1010.1 - 0.0 - - 10 - - - -
18/08:30pm 26.3 NNE 7 9 1010.5 - 0.0 - - 10 - - - -
18/08:00pm 26.4 NE 8 11 1010.3 - 0.0 - - 10 - - - -
18/07:30pm 26.6 ENE 7 9 1010.0 - 0.0 - - 10 - - - -
18/07:00pm 26.7 E 7 9 1009.7 - 0.0 - - 10 - - - -
18/06:30pm 26.9 E 8 11 1009.4 - 0.0 - - 10 - - - -
18/06:00pm 27.3 E 10 12 1008.9 - 0.0 - - 10 - - - -
18/05:30pm 27.5 E 9 13 1009.3 - 0.0 - - 10 - - - -
18/05:00pm 27.5 E 11 13 1009.3 - 0.0 - - - - - - -
18/04:30pm 27.7 E 11 14 1009.4 - 0.0 - - 10 - - - -
18/04:00pm 28.1 E 10 12 1009.7 - 0.0 - - 10 - - - -
18/03:30pm 28.6 E 10 11 1010.1 - 0.0 - - 10 - - - -
18/03:00pm 27.8 E 9 11 1009.8 - 0.0 - - 10 - - - -
18/02:30pm 28.3 E 9 11 1010.4 - 0.0 - - 10 - - - -
18/02:00pm 28.7 ESE 9 13 1010.5 - 0.0 - - 10 - - - -
18/01:30pm 28.7 ESE 11 13 1010.7 - 0.0 - - 10 - - - -
18/01:00pm 28.9 SE 8 11 1011.3 - 0.0 - Partly cloudy 10 - - - -
18/12:30pm 28.9 ESE 9 11 1011.8 - 0.0 - Partly cloudy 10 - - - -
18/12:00pm 29.2 ESE 7 9 1011.7 - 0.0 - Mostly clear 10 - - - -
18/11:30am 28.8 E 7 8 1012.4 - 0.0 - - 10 - - - -
18/11:00am 28.9 ESE 5 6 1012.7 - 0.0 - - 10 - - - -
18/10:30am 29.1 ESE 6 8 1012.8 - 0.0 - Partly cloudy 10 - - - -
18/10:00am 28.6 SE 6 8 1013.1 - 0.0 - Partly cloudy 10 - - - -
18/09:30am 28.2 SE 5 7 1013.3 - 0.0 - Partly cloudy 10 - - - -
18/09:00am 28.4 E 6 8 1012.8 - 0.0 - Mostly cloudy 10 - - - -
18/08:30am 28.7 E 5 8 1013.1 - 0.0 - Partly cloudy 10 - - - -
18/08:00am 27.8 ENE 3 5 1012.9 - 0.0 - - 10 - - - -
18/07:30am 27.7 ENE 3 4 1012.7 - 0.0 - - 10 - - - -
18/07:00am 25.5 NNW 2 3 1012.5 - 0.0 - - 10 - - - -
18/06:30am 25.0 NNW 4 5 1012.3 - 0.0 - - 10 - - - -
18/06:00am 25.2 N 1 4 1011.6 - 0.0 - - 10 - - - -
18/05:30am 25.2 CALM 0 0 1011.6 - 0.0 - - 10 - - - -
18/05:00am 25.1 CALM 0 0 1011.5 - 0.0 - Partly cloudy 10 - - - -
18/04:30am 25.3 N 2 4 1011.2 - 0.0 - - 10 - - - -
18/04:00am 25.4 NNE 3 4 1011.1 - 0.0 - Partly cloudy 10 - - - -
18/03:30am 25.4 NE 5 5 1011.0 - 0.0 - Partly cloudy 10 - - - -
18/03:00am 25.6 NNE 6 7 1010.7 - 0.0 - Partly cloudy 10 - - - -
18/02:30am 25.6 CALM 0 0 1011.1 - 0.0 - Partly cloudy 10 - - - -
18/02:00am 25.6 CALM 0 0 1011.5 - 0.0 - Partly cloudy 10 - - - -
18/01:30am 25.6 CALM 0 0 1011.9 - 0.0 - Partly cloudy 10 - - - -
18/01:00am 25.5 NNW 4 4 1012.2 - 0.0 - Partly cloudy 10 - - - -
18/12:30am 25.6 NNW 4 5 1012.6 - 0.0 - Partly cloudy 10 - - - -
18/12:00am 25.7 NW 5 6 1012.5 - 0.0 - Partly cloudy 10 - - - -
 
Date/Time
EST
Temp
°C
Wind Pressure Rain since
9am
mm
Weather Cloud Vis
km
Sea
Height
m
Swell
Dir  Spd
kts
Gust
kts
hPa Trend Height
m
Period
s
Dir
17/11:30pm 26.1 ENE 4 5 1013.2 - 0.0 - Partly cloudy 10 - - - -
17/11:00pm 26.4 E 4 7 1013.6 - 0.0 - - 10 - - - -
17/10:30pm 26.5 E 5 8 1013.6 - 0.0 - - 10 - - - -
17/10:00pm 26.7 ENE 7 9 1013.5 - 0.0 - - 10 - - - -
17/09:30pm 26.8 ENE 9 11 1013.4 - 0.0 - - 10 - - - -
17/09:00pm 26.9 E 8 10 1012.9 - 0.0 - - 10 - - - -
17/08:30pm 27.0 E 7 9 1013.2 - 0.0 - - 10 - - - -
17/08:00pm 27.2 E 10 12 1013.0 - 0.0 - - 10 - - - -
17/07:30pm 27.2 E 12 15 1012.8 - 0.0 - - 10 - - - -
17/07:00pm 27.3 E 12 15 1012.6 - 0.0 - - 10 - - - -
17/06:30pm 27.3 ESE 12 13 1012.6 - 0.0 - - 10 - - - -
17/06:00pm 27.7 E 12 14 1012.1 - 0.0 - - 10 - - - -
17/05:30pm 28.0 E 11 15 1012.4 - 0.0 - - 10 - - - -
17/05:00pm 28.2 E 11 14 1012.5 - 0.0 - - 10 - - - -
17/04:30pm 28.4 E 11 14 1012.4 - 0.0 - - 10 - - - -
17/04:00pm 28.7 E 11 13 1012.5 - 0.0 - - 10 - - - -
17/03:30pm 29.4 E 10 13 1012.7 - 0.0 - - 10 - - - -
17/03:00pm 29.5 E 10 12 1012.5 - 0.0 - - 10 - - - -
17/02:30pm 29.0 E 10 12 1013.1 - 0.0 - - 10 - - - -
17/02:00pm 29.4 E 11 14 1013.1 - 0.0 - - 10 - - - -
17/01:30pm 29.8 E 12 14 1013.4 - 0.0 - - 10 - - - -
17/01:00pm 29.9 ESE 11 14 1013.6 - 0.0 - Partly cloudy 10 - - - -
17/12:30pm 29.4 E 12 14 1013.7 - 0.0 - Partly cloudy 10 - - - -
17/12:00pm 29.2 E 11 14 1013.6 - 0.0 - - 10 - - - -
17/11:30am 29.6 ESE 12 15 1014.1 - 0.0 - - 10 - - - -
17/11:00am 29.8 E 11 13 1014.4 - 0.0 - - 10 - - - -
17/10:30am 29.5 ESE 10 13 1014.5 - 0.0 - Partly cloudy 10 - - - -
17/10:00am 29.6 SE 10 11 1014.6 - 0.0 - Partly cloudy 10 - - - -
17/09:30am 29.3 ESE 9 11 1014.5 - 0.0 - - 10 - - - -
17/09:00am 29.3 ESE 9 12 1013.9 - 0.0 - - 10 - - - -
17/08:30am 29.0 ESE 11 13 1014.0 - 0.0 - Partly cloudy 10 - - - -
17/08:00am 28.6 ESE 12 15 1013.6 - 0.0 - Partly cloudy 10 - - - -
17/07:30am 27.5 ESE 14 16 1013.4 - 0.0 - Partly cloudy 10 - - - -

Other Formats:

Comma delimited format used in spreadsheet applications
http://www.bom.gov.au/fwo/IDQ60701/IDQ60701.94368.axf

JavaScript Object Notation format (JSON) in row-major order
http://www.bom.gov.au/fwo/IDQ60701/IDQ60701.94368.json